JTM125 ZGHA-VMMC
Flight info
| Callsign | JTM125 |
|---|---|
| Flight time | 1h 6m |
| Altitude | 31100 |
| Route | UBMOG W615 IDAXI R473 BEMAG V5 CON |
| Aircraft | B738/M-SDE2FGHIRWY/L |
Departure
| Time | 2026-04-22 12:21 |
|---|---|
| Airport | Changsha Huanghua International Airport (ZGHA) |
Arrival
| Time | 2026-04-22 13:27 |
|---|---|
| Airport | Macau International Airport (VMMC) |
| Time | Latitude | Longitude | Altitude | Speed | Heading |
|---|---|---|---|---|---|
| 2026-04-22 12:14 | 28.18999 | 113.21592 | 227 ft | 0 kts | 268° |
| 2026-04-22 12:17 | 28.18999 | 113.21599 | 227 ft | 1 kts | 268° |
| 2026-04-22 12:17 | 28.18999 | 113.21620 | 227 ft | 2 kts | 265° |
| 2026-04-22 12:17 | 28.19005 | 113.21627 | 227 ft | 0 kts | 171° |
| 2026-04-22 12:18 | 28.18952 | 113.21661 | 227 ft | 18 kts | 148° |
| 2026-04-22 12:18 | 28.18875 | 113.21773 | 227 ft | 18 kts | 127° |
| 2026-04-22 12:18 | 28.18765 | 113.21803 | 227 ft | 15 kts | 181° |
| 2026-04-22 12:18 | 28.18696 | 113.21830 | 227 ft | 13 kts | 168° |
| 2026-04-22 12:19 | 28.18507 | 113.21818 | 227 ft | 40 kts | 178° |
| 2026-04-22 12:19 | 28.18217 | 113.21836 | 227 ft | 41 kts | 176° |
| 2026-04-22 12:19 | 28.17927 | 113.21855 | 227 ft | 41 kts | 177° |
| 2026-04-22 12:19 | 28.17755 | 113.21898 | 227 ft | 11 kts | 121° |
| 2026-04-22 12:20 | 28.17748 | 113.21925 | 227 ft | 0 kts | 95° |
| 2026-04-22 12:20 | 28.17748 | 113.21957 | 227 ft | 10 kts | 87° |
| 2026-04-22 12:20 | 28.17831 | 113.22038 | 227 ft | 24 kts | 6° |
| 2026-04-22 12:21 | 28.17993 | 113.22034 | 227 ft | 53 kts | 358° |
| 2026-04-22 12:21 | 28.18878 | 113.21979 | 227 ft | 132 kts | 357° |
| 2026-04-22 12:21 | 28.19923 | 113.21885 | 375 ft | 161 kts | 354° |
| 2026-04-22 12:21 | 28.21054 | 113.21790 | 984 ft | 161 kts | 355° |
| 2026-04-22 12:22 | 28.22187 | 113.21685 | 1714 ft | 174 kts | 356° |
| 2026-04-22 12:22 | 28.22990 | 113.21646 | 2264 ft | 177 kts | 358° |
| 2026-04-22 12:22 | 28.24666 | 113.21580 | 3197 ft | 190 kts | 358° |
| 2026-04-22 12:22 | 28.26022 | 113.21503 | 3943 ft | 199 kts | 357° |
| 2026-04-22 12:23 | 28.27414 | 113.21416 | 4713 ft | 205 kts | 357° |
| 2026-04-22 12:23 | 28.28843 | 113.21324 | 5525 ft | 210 kts | 356° |
| 2026-04-22 12:23 | 28.30301 | 113.21232 | 6401 ft | 214 kts | 356° |
| 2026-04-22 12:23 | 28.31772 | 113.21140 | 7235 ft | 217 kts | 356° |
| 2026-04-22 12:24 | 28.33307 | 113.21322 | 7966 ft | 228 kts | 17° |
| 2026-04-22 12:24 | 28.34672 | 113.22302 | 8683 ft | 242 kts | 42° |
| 2026-04-22 12:24 | 28.35649 | 113.23875 | 9393 ft | 254 kts | 61° |
| 2026-04-22 12:24 | 28.36164 | 113.25797 | 10070 ft | 265 kts | 84° |
| 2026-04-22 12:25 | 28.35880 | 113.27878 | 10768 ft | 271 kts | 116° |
| 2026-04-22 12:25 | 28.35222 | 113.29071 | 11219 ft | 272 kts | 135° |
| 2026-04-22 12:25 | 28.33785 | 113.30397 | 11938 ft | 269 kts | 156° |
| 2026-04-22 12:25 | 28.31554 | 113.31634 | 12971 ft | 269 kts | 163° |
| 2026-04-22 12:26 | 28.30413 | 113.32209 | 13482 ft | 271 kts | 163° |
| 2026-04-22 12:26 | 28.28133 | 113.33385 | 14563 ft | 273 kts | 163° |
| 2026-04-22 12:26 | 28.26413 | 113.34292 | 15262 ft | 278 kts | 164° |
| 2026-04-22 12:26 | 28.24655 | 113.35227 | 15986 ft | 282 kts | 164° |
| 2026-04-22 12:27 | 28.22877 | 113.36177 | 16683 ft | 286 kts | 164° |
| 2026-04-22 12:27 | 28.21071 | 113.37141 | 17368 ft | 289 kts | 164° |
| 2026-04-22 12:27 | 28.19834 | 113.37802 | 17814 ft | 292 kts | 165° |
| 2026-04-22 12:27 | 28.17386 | 113.39115 | 18710 ft | 297 kts | 162° |
| 2026-04-22 12:28 | 28.15598 | 113.40385 | 19313 ft | 313 kts | 149° |
| 2026-04-22 12:28 | 28.14049 | 113.42163 | 19926 ft | 327 kts | 135° |
| 2026-04-22 12:28 | 28.13180 | 113.43600 | 20220 ft | 340 kts | 126° |
| 2026-04-22 12:28 | 28.12156 | 113.46116 | 20526 ft | 362 kts | 113° |
| 2026-04-22 12:29 | 28.11264 | 113.49885 | 20986 ft | 382 kts | 108° |
| 2026-04-22 12:29 | 28.10531 | 113.52807 | 21265 ft | 395 kts | 113° |
| 2026-04-22 12:29 | 28.09432 | 113.55692 | 21556 ft | 403 kts | 124° |
| 2026-04-22 12:29 | 28.07869 | 113.58346 | 21836 ft | 408 kts | 135° |
| 2026-04-22 12:30 | 28.03586 | 113.62720 | 22311 ft | 422 kts | 152° |
| 2026-04-22 12:30 | 28.01087 | 113.64545 | 22527 ft | 433 kts | 156° |
| 2026-04-22 12:30 | 27.98450 | 113.66264 | 22763 ft | 442 kts | 160° |
| 2026-04-22 12:31 | 27.95622 | 113.67625 | 22916 ft | 446 kts | 170° |
| 2026-04-22 12:31 | 27.92591 | 113.68456 | 23114 ft | 448 kts | 179° |
| 2026-04-22 12:31 | 27.90528 | 113.68710 | 23246 ft | 450 kts | 184° |
| 2026-04-22 12:31 | 27.86321 | 113.68722 | 23484 ft | 459 kts | 190° |
| 2026-04-22 12:32 | 27.83098 | 113.68525 | 23571 ft | 470 kts | 191° |
| 2026-04-22 12:32 | 27.76504 | 113.67931 | 24525 ft | 475 kts | 193° |
| 2026-04-22 12:32 | 27.73203 | 113.67610 | 24998 ft | 478 kts | 193° |
| 2026-04-22 12:33 | 27.70996 | 113.67394 | 25316 ft | 480 kts | 193° |
| 2026-04-22 12:33 | 27.66550 | 113.66967 | 26094 ft | 480 kts | 193° |
| 2026-04-22 12:33 | 27.63226 | 113.66705 | 26789 ft | 480 kts | 191° |
| 2026-04-22 12:33 | 27.61008 | 113.66631 | 27210 ft | 481 kts | 189° |
| 2026-04-22 12:34 | 27.57646 | 113.66641 | 27793 ft | 483 kts | 188° |
| 2026-04-22 12:34 | 27.53175 | 113.66777 | 28522 ft | 484 kts | 187° |
| 2026-04-22 12:34 | 27.49805 | 113.66919 | 29195 ft | 482 kts | 187° |
| 2026-04-22 12:34 | 27.46444 | 113.67077 | 29808 ft | 482 kts | 186° |
| 2026-04-22 12:35 | 27.43116 | 113.67382 | 30412 ft | 484 kts | 183° |
| 2026-04-22 12:35 | 27.39735 | 113.67848 | 30947 ft | 486 kts | 181° |
| 2026-04-22 12:35 | 27.36389 | 113.68389 | 31095 ft | 490 kts | 180° |
| 2026-04-22 12:35 | 27.33004 | 113.68977 | 31100 ft | 488 kts | 180° |
| 2026-04-22 12:36 | 27.27423 | 113.69965 | 31101 ft | 489 kts | 180° |
| 2026-04-22 12:36 | 27.19578 | 113.71308 | 31098 ft | 489 kts | 180° |
| 2026-04-22 12:37 | 27.12792 | 113.72422 | 31090 ft | 490 kts | 181° |
| 2026-04-22 12:37 | 27.06067 | 113.73508 | 31097 ft | 488 kts | 181° |
| 2026-04-22 12:38 | 26.99358 | 113.74577 | 31096 ft | 488 kts | 181° |
| 2026-04-22 12:38 | 26.92644 | 113.75646 | 31096 ft | 488 kts | 181° |
| 2026-04-22 12:39 | 26.83673 | 113.77071 | 31089 ft | 490 kts | 180° |
| 2026-04-22 12:40 | 26.75799 | 113.78320 | 31089 ft | 489 kts | 180° |
| 2026-04-22 12:40 | 26.69086 | 113.79873 | 31088 ft | 497 kts | 173° |
| 2026-04-22 12:41 | 26.62390 | 113.81984 | 31087 ft | 501 kts | 171° |
| 2026-04-22 12:41 | 26.55712 | 113.84212 | 31086 ft | 498 kts | 171° |
| 2026-04-22 12:42 | 26.49024 | 113.86397 | 31080 ft | 501 kts | 172° |
| 2026-04-22 12:42 | 26.42324 | 113.88437 | 31077 ft | 499 kts | 173° |
| 2026-04-22 12:43 | 26.35619 | 113.90369 | 31083 ft | 498 kts | 173° |
| 2026-04-22 12:43 | 26.28929 | 113.92275 | 31086 ft | 498 kts | 173° |
| 2026-04-22 12:44 | 26.23313 | 113.93877 | 31112 ft | 498 kts | 173° |
| 2026-04-22 12:44 | 26.15492 | 113.96120 | 31116 ft | 498 kts | 173° |
| 2026-04-22 12:45 | 26.08751 | 113.98056 | 31115 ft | 498 kts | 172° |
| 2026-04-22 12:45 | 26.02029 | 113.99561 | 31111 ft | 488 kts | 182° |
| 2026-04-22 12:46 | 25.96468 | 113.99423 | 31100 ft | 476 kts | 193° |
| 2026-04-22 12:46 | 25.89923 | 113.98390 | 31071 ft | 472 kts | 197° |
| 2026-04-22 12:47 | 25.82345 | 113.96931 | 31066 ft | 470 kts | 197° |
| 2026-04-22 12:47 | 25.75913 | 113.95714 | 31057 ft | 472 kts | 197° |
| 2026-04-22 12:48 | 25.69416 | 113.94531 | 31058 ft | 473 kts | 196° |
| 2026-04-22 12:48 | 25.62927 | 113.93386 | 31065 ft | 474 kts | 196° |
| 2026-04-22 12:49 | 25.56388 | 113.92252 | 31062 ft | 473 kts | 196° |
| 2026-04-22 12:49 | 25.49890 | 113.91134 | 31070 ft | 472 kts | 196° |
| 2026-04-22 12:50 | 25.43374 | 113.90015 | 31069 ft | 472 kts | 196° |
| 2026-04-22 12:50 | 25.36891 | 113.88902 | 31067 ft | 473 kts | 196° |
| 2026-04-22 12:51 | 25.30379 | 113.87788 | 31061 ft | 473 kts | 196° |
| 2026-04-22 12:51 | 25.24956 | 113.86858 | 31048 ft | 474 kts | 196° |
| 2026-04-22 12:52 | 25.17343 | 113.85555 | 31033 ft | 473 kts | 195° |
| 2026-04-22 12:52 | 25.11908 | 113.84627 | 31033 ft | 475 kts | 195° |
| 2026-04-22 12:53 | 25.04292 | 113.83328 | 31027 ft | 473 kts | 195° |
| 2026-04-22 12:53 | 24.97763 | 113.82215 | 31022 ft | 474 kts | 195° |
| 2026-04-22 12:54 | 24.92318 | 113.81287 | 31018 ft | 474 kts | 195° |
| 2026-04-22 12:54 | 24.84672 | 113.79987 | 31003 ft | 476 kts | 195° |
| 2026-04-22 12:55 | 24.79204 | 113.79059 | 31006 ft | 477 kts | 195° |
| 2026-04-22 12:55 | 24.71548 | 113.77762 | 30999 ft | 476 kts | 195° |
| 2026-04-22 12:56 | 24.65005 | 113.76653 | 30993 ft | 477 kts | 195° |
| 2026-04-22 12:56 | 24.58431 | 113.75539 | 30996 ft | 478 kts | 195° |
| 2026-04-22 12:57 | 24.51846 | 113.74426 | 30996 ft | 477 kts | 195° |
| 2026-04-22 12:57 | 24.45260 | 113.73313 | 30993 ft | 478 kts | 195° |
| 2026-04-22 12:58 | 24.38677 | 113.72201 | 30989 ft | 479 kts | 195° |
| 2026-04-22 12:58 | 24.32107 | 113.71101 | 30940 ft | 474 kts | 195° |
| 2026-04-22 12:58 | 24.28889 | 113.70570 | 30749 ft | 461 kts | 195° |
| 2026-04-22 12:59 | 24.25755 | 113.70052 | 30397 ft | 451 kts | 195° |
| 2026-04-22 12:59 | 24.22632 | 113.69530 | 29838 ft | 447 kts | 195° |
| 2026-04-22 12:59 | 24.19569 | 113.69010 | 29192 ft | 444 kts | 195° |
| 2026-04-22 12:59 | 24.16570 | 113.68499 | 28619 ft | 440 kts | 195° |
| 2026-04-22 13:00 | 24.13540 | 113.67982 | 28051 ft | 436 kts | 195° |
| 2026-04-22 13:00 | 24.10540 | 113.67471 | 27489 ft | 432 kts | 195° |
| 2026-04-22 13:00 | 24.08601 | 113.67139 | 27042 ft | 431 kts | 195° |
| 2026-04-22 13:00 | 24.04698 | 113.66473 | 26652 ft | 416 kts | 195° |
| 2026-04-22 13:01 | 24.01883 | 113.65998 | 26385 ft | 405 kts | 195° |
| 2026-04-22 13:01 | 23.99111 | 113.65530 | 26100 ft | 395 kts | 195° |
| 2026-04-22 13:01 | 23.96401 | 113.65069 | 25683 ft | 390 kts | 196° |
| 2026-04-22 13:01 | 23.93728 | 113.64611 | 25148 ft | 388 kts | 195° |
| 2026-04-22 13:02 | 23.91069 | 113.64155 | 24640 ft | 385 kts | 195° |
| 2026-04-22 13:02 | 23.88465 | 113.63710 | 24205 ft | 380 kts | 196° |
| 2026-04-22 13:02 | 23.85828 | 113.63258 | 23585 ft | 381 kts | 195° |
| 2026-04-22 13:02 | 23.83230 | 113.62814 | 23163 ft | 376 kts | 195° |
| 2026-04-22 13:03 | 23.80655 | 113.62377 | 22698 ft | 372 kts | 196° |
| 2026-04-22 13:03 | 23.78104 | 113.61944 | 22161 ft | 371 kts | 195° |
| 2026-04-22 13:03 | 23.75569 | 113.61515 | 21781 ft | 365 kts | 195° |
| 2026-04-22 13:03 | 23.73086 | 113.61094 | 21326 ft | 362 kts | 195° |
| 2026-04-22 13:04 | 23.70602 | 113.60671 | 20772 ft | 361 kts | 195° |
| 2026-04-22 13:04 | 23.68108 | 113.60246 | 20294 ft | 358 kts | 195° |
| 2026-04-22 13:04 | 23.65645 | 113.59829 | 19809 ft | 356 kts | 195° |
| 2026-04-22 13:04 | 23.63220 | 113.59419 | 19326 ft | 353 kts | 195° |
| 2026-04-22 13:05 | 23.60795 | 113.59010 | 18866 ft | 350 kts | 194° |
| 2026-04-22 13:05 | 23.58384 | 113.58604 | 18352 ft | 348 kts | 194° |
| 2026-04-22 13:05 | 23.55993 | 113.58227 | 17867 ft | 346 kts | 193° |
| 2026-04-22 13:05 | 23.53634 | 113.57882 | 17417 ft | 343 kts | 192° |
| 2026-04-22 13:06 | 23.51245 | 113.57540 | 16937 ft | 341 kts | 192° |
| 2026-04-22 13:06 | 23.48928 | 113.57209 | 16502 ft | 337 kts | 192° |
| 2026-04-22 13:06 | 23.46611 | 113.56873 | 16014 ft | 335 kts | 193° |
| 2026-04-22 13:06 | 23.44304 | 113.56535 | 15551 ft | 333 kts | 193° |
| 2026-04-22 13:07 | 23.41997 | 113.56197 | 15010 ft | 332 kts | 193° |
| 2026-04-22 13:07 | 23.39731 | 113.55865 | 14619 ft | 327 kts | 193° |
| 2026-04-22 13:07 | 23.37483 | 113.55536 | 14128 ft | 325 kts | 193° |
| 2026-04-22 13:07 | 23.35253 | 113.55211 | 13822 ft | 317 kts | 193° |
| 2026-04-22 13:08 | 23.33090 | 113.54897 | 13555 ft | 309 kts | 193° |
| 2026-04-22 13:08 | 23.31661 | 113.54688 | 13251 ft | 308 kts | 193° |
| 2026-04-22 13:08 | 23.29558 | 113.54377 | 12782 ft | 307 kts | 193° |
| 2026-04-22 13:08 | 23.26745 | 113.53966 | 12547 ft | 295 kts | 193° |
| 2026-04-22 13:09 | 23.25399 | 113.53773 | 12364 ft | 294 kts | 193° |
| 2026-04-22 13:09 | 23.22648 | 113.53365 | 11507 ft | 302 kts | 193° |
| 2026-04-22 13:09 | 23.20591 | 113.53062 | 11125 ft | 298 kts | 193° |
| 2026-04-22 13:09 | 23.18542 | 113.52763 | 10704 ft | 296 kts | 193° |
| 2026-04-22 13:10 | 23.16491 | 113.52464 | 10278 ft | 295 kts | 193° |
| 2026-04-22 13:10 | 23.14454 | 113.52168 | 9895 ft | 291 kts | 192° |
| 2026-04-22 13:10 | 23.12460 | 113.51877 | 9463 ft | 290 kts | 192° |
| 2026-04-22 13:10 | 23.10479 | 113.51589 | 9082 ft | 287 kts | 192° |
| 2026-04-22 13:11 | 23.08492 | 113.51298 | 8627 ft | 288 kts | 192° |
| 2026-04-22 13:11 | 23.06500 | 113.51006 | 8240 ft | 286 kts | 192° |
| 2026-04-22 13:11 | 23.04528 | 113.50719 | 7848 ft | 284 kts | 192° |
| 2026-04-22 13:11 | 23.02567 | 113.50433 | 7456 ft | 283 kts | 191° |
| 2026-04-22 13:12 | 23.00632 | 113.50151 | 7062 ft | 282 kts | 191° |
| 2026-04-22 13:12 | 22.98709 | 113.49871 | 6875 ft | 279 kts | 191° |
| 2026-04-22 13:12 | 22.96760 | 113.49585 | 6880 ft | 281 kts | 191° |
| 2026-04-22 13:12 | 22.94806 | 113.49296 | 6869 ft | 281 kts | 191° |
| 2026-04-22 13:13 | 22.92858 | 113.49010 | 6873 ft | 282 kts | 191° |
| 2026-04-22 13:13 | 22.90917 | 113.48728 | 6877 ft | 282 kts | 191° |
| 2026-04-22 13:13 | 22.88964 | 113.48460 | 6877 ft | 281 kts | 189° |
| 2026-04-22 13:13 | 22.86999 | 113.48467 | 6878 ft | 285 kts | 177° |
| 2026-04-22 13:14 | 22.85057 | 113.48846 | 6874 ft | 275 kts | 171° |
| 2026-04-22 13:14 | 22.83199 | 113.49339 | 6881 ft | 274 kts | 170° |
| 2026-04-22 13:14 | 22.81353 | 113.49822 | 6882 ft | 275 kts | 170° |
| 2026-04-22 13:14 | 22.79474 | 113.50278 | 6883 ft | 273 kts | 172° |
| 2026-04-22 13:15 | 22.77614 | 113.50702 | 6885 ft | 274 kts | 172° |
| 2026-04-22 13:15 | 22.75736 | 113.51121 | 6889 ft | 274 kts | 172° |
| 2026-04-22 13:15 | 22.73859 | 113.51537 | 6890 ft | 274 kts | 172° |
| 2026-04-22 13:15 | 22.71987 | 113.51955 | 6890 ft | 274 kts | 172° |
| 2026-04-22 13:16 | 22.70103 | 113.52376 | 6889 ft | 275 kts | 172° |
| 2026-04-22 13:16 | 22.68222 | 113.52797 | 6891 ft | 274 kts | 172° |
| 2026-04-22 13:16 | 22.66356 | 113.53214 | 6891 ft | 274 kts | 172° |
| 2026-04-22 13:16 | 22.64484 | 113.53633 | 6890 ft | 273 kts | 172° |
| 2026-04-22 13:17 | 22.62606 | 113.54054 | 6892 ft | 273 kts | 172° |
| 2026-04-22 13:17 | 22.60745 | 113.54469 | 6891 ft | 274 kts | 172° |
| 2026-04-22 13:17 | 22.58877 | 113.54887 | 6894 ft | 274 kts | 172° |
| 2026-04-22 13:17 | 22.57008 | 113.55305 | 6894 ft | 273 kts | 172° |
| 2026-04-22 13:18 | 22.55147 | 113.55720 | 6898 ft | 274 kts | 172° |
| 2026-04-22 13:18 | 22.53256 | 113.56162 | 6897 ft | 274 kts | 170° |
| 2026-04-22 13:18 | 22.51422 | 113.56699 | 6893 ft | 267 kts | 167° |
| 2026-04-22 13:18 | 22.49733 | 113.57253 | 6890 ft | 242 kts | 167° |
| 2026-04-22 13:19 | 22.48217 | 113.57770 | 6891 ft | 215 kts | 167° |
| 2026-04-22 13:19 | 22.46782 | 113.58245 | 6906 ft | 212 kts | 168° |
| 2026-04-22 13:19 | 22.45371 | 113.58699 | 6900 ft | 211 kts | 168° |
| 2026-04-22 13:19 | 22.43959 | 113.59154 | 6905 ft | 212 kts | 168° |
| 2026-04-22 13:20 | 22.42549 | 113.59611 | 6912 ft | 210 kts | 168° |
| 2026-04-22 13:20 | 22.41153 | 113.60066 | 6822 ft | 204 kts | 168° |
| 2026-04-22 13:20 | 22.39806 | 113.60506 | 6388 ft | 202 kts | 169° |
| 2026-04-22 13:20 | 22.38464 | 113.60938 | 5888 ft | 204 kts | 168° |
| 2026-04-22 13:21 | 22.37096 | 113.61381 | 5436 ft | 202 kts | 168° |
| 2026-04-22 13:21 | 22.35757 | 113.61812 | 4927 ft | 201 kts | 168° |
| 2026-04-22 13:21 | 22.34429 | 113.62231 | 4467 ft | 194 kts | 168° |
| 2026-04-22 13:21 | 22.33590 | 113.62495 | 4264 ft | 185 kts | 169° |
| 2026-04-22 13:22 | 22.32397 | 113.62872 | 4009 ft | 171 kts | 168° |
| 2026-04-22 13:22 | 22.31332 | 113.63211 | 3910 ft | 144 kts | 169° |
| 2026-04-22 13:22 | 22.30422 | 113.63498 | 3615 ft | 135 kts | 170° |
| 2026-04-22 13:22 | 22.29229 | 113.63862 | 3082 ft | 133 kts | 170° |
| 2026-04-22 13:23 | 22.28338 | 113.64076 | 2670 ft | 131 kts | 180° |
| 2026-04-22 13:23 | 22.27451 | 113.64020 | 2270 ft | 126 kts | 194° |
| 2026-04-22 13:23 | 22.26628 | 113.63775 | 1930 ft | 122 kts | 202° |
| 2026-04-22 13:23 | 22.25885 | 113.63356 | 1764 ft | 116 kts | 215° |
| 2026-04-22 13:24 | 22.25252 | 113.62783 | 1820 ft | 122 kts | 224° |
| 2026-04-22 13:24 | 22.24711 | 113.62073 | 1798 ft | 122 kts | 232° |
| 2026-04-22 13:24 | 22.24203 | 113.61327 | 1806 ft | 124 kts | 231° |
| 2026-04-22 13:24 | 22.23681 | 113.60589 | 1796 ft | 124 kts | 230° |
| 2026-04-22 13:25 | 22.23146 | 113.59836 | 1648 ft | 125 kts | 230° |
| 2026-04-22 13:25 | 22.22621 | 113.59095 | 1475 ft | 124 kts | 231° |
| 2026-04-22 13:25 | 22.22085 | 113.58347 | 1325 ft | 125 kts | 229° |
| 2026-04-22 13:25 | 22.21527 | 113.57623 | 1157 ft | 125 kts | 218° |
| 2026-04-22 13:26 | 22.20728 | 113.57271 | 931 ft | 129 kts | 188° |
| 2026-04-22 13:26 | 22.19855 | 113.57342 | 806 ft | 126 kts | 168° |
| 2026-04-22 13:26 | 22.19292 | 113.57564 | 637 ft | 132 kts | 161° |
| 2026-04-22 13:26 | 22.18154 | 113.58032 | 432 ft | 127 kts | 165° |
| 2026-04-22 13:27 | 22.17298 | 113.58321 | 219 ft | 129 kts | 162° |
| 2026-04-22 13:27 | 22.16440 | 113.58607 | 80 ft | 128 kts | 166° |
| 2026-04-22 13:27 | 22.15614 | 113.58892 | 12 ft | 117 kts | 164° |
| 2026-04-22 13:27 | 22.15070 | 113.59090 | 12 ft | 41 kts | 163° |
| 2026-04-22 13:28 | 22.14998 | 113.59119 | 12 ft | 0 kts | 162° |
| 2026-04-22 13:28 | 22.14968 | 113.59129 | 12 ft | 8 kts | 162° |
| 2026-04-22 13:28 | 22.14885 | 113.59160 | 12 ft | 16 kts | 159° |
| 2026-04-22 13:28 | 22.14764 | 113.59207 | 12 ft | 18 kts | 162° |
| 2026-04-22 13:29 | 22.14699 | 113.59229 | 12 ft | 0 kts | 163° |
| 2026-04-22 13:29 | 22.14665 | 113.59239 | 12 ft | 10 kts | 168° |
| 2026-04-22 13:30 | 22.14587 | 113.59175 | 12 ft | 20 kts | 246° |
| 2026-04-22 13:30 | 22.14599 | 113.59082 | 12 ft | 19 kts | 323° |
| 2026-04-22 13:30 | 22.14722 | 113.59028 | 12 ft | 18 kts | 321° |
| 2026-04-22 13:30 | 22.14803 | 113.58913 | 11 ft | 19 kts | 304° |
| 2026-04-22 13:31 | 22.14882 | 113.58785 | 9 ft | 20 kts | 302° |
| 2026-04-22 13:31 | 22.14909 | 113.58740 | 9 ft | 20 kts | 303° |
| 2026-04-22 13:31 | 22.14990 | 113.58610 | 9 ft | 20 kts | 304° |
| 2026-04-22 13:31 | 22.15070 | 113.58478 | 9 ft | 21 kts | 303° |
| 2026-04-22 13:32 | 22.15151 | 113.58347 | 9 ft | 21 kts | 304° |
| 2026-04-22 13:32 | 22.15234 | 113.58215 | 9 ft | 21 kts | 302° |
| 2026-04-22 13:32 | 22.15315 | 113.58085 | 9 ft | 20 kts | 309° |
| 2026-04-22 13:32 | 22.15395 | 113.57954 | 10 ft | 20 kts | 304° |
| 2026-04-22 13:33 | 22.15471 | 113.57829 | 12 ft | 19 kts | 304° |
| 2026-04-22 13:33 | 22.15544 | 113.57710 | 14 ft | 18 kts | 303° |
| 2026-04-22 13:33 | 22.15610 | 113.57615 | 17 ft | 13 kts | 327° |
| 2026-04-22 13:33 | 22.15695 | 113.57629 | 18 ft | 12 kts | 27° |
| 2026-04-22 13:34 | 22.15770 | 113.57649 | 19 ft | 9 kts | 325° |
| 2026-04-22 13:34 | 22.15794 | 113.57604 | 22 ft | 4 kts | 292° |
| 2026-04-22 13:34 | 22.15800 | 113.57587 | 23 ft | 1 kts | 290° |
| 2026-04-22 13:34 | 22.15800 | 113.57586 | 23 ft | 0 kts | 290° |